createdAt,value
2022-08-31T00:00:42.774Z,11.30
2022-08-31T00:03:09.714Z,11.20
2022-08-31T00:05:38.609Z,11.20
2022-08-31T00:08:05.579Z,11.30
2022-08-31T00:10:37.063Z,11.20
2022-08-31T00:13:06.917Z,11.20
2022-08-31T00:15:35.237Z,11.20
2022-08-31T00:18:02.183Z,11.10
2022-08-31T00:20:33.556Z,11.10
2022-08-31T00:23:03.037Z,11.00
2022-08-31T00:25:30.212Z,11.00
2022-08-31T00:27:56.998Z,10.90
2022-08-31T00:30:23.946Z,10.90
2022-08-31T00:32:50.840Z,10.90
2022-08-31T00:35:19.206Z,10.80
2022-08-31T00:37:46.016Z,10.80
2022-08-31T00:40:13.236Z,10.80
2022-08-31T00:42:40.372Z,10.80
2022-08-31T00:45:08.469Z,10.80
2022-08-31T00:47:35.636Z,10.70
2022-08-31T00:50:06.902Z,10.80
2022-08-31T00:52:38.414Z,10.80
2022-08-31T00:55:12.063Z,10.80
2022-08-31T00:57:41.169Z,10.80
2022-08-31T01:00:13.062Z,10.70
2022-08-31T01:02:39.995Z,10.70
2022-08-31T01:05:08.077Z,10.70
2022-08-31T01:07:35.334Z,10.60
2022-08-31T01:10:02.458Z,10.70
2022-08-31T01:12:29.481Z,10.70
2022-08-31T01:14:56.752Z,10.80
2022-08-31T01:17:23.978Z,10.70
2022-08-31T01:20:16.050Z,10.80
2022-08-31T01:22:51.763Z,10.70
2022-08-31T01:25:20.029Z,10.70
2022-08-31T01:27:47.403Z,10.70
2022-08-31T01:30:22.035Z,10.70
2022-08-31T01:32:49.248Z,10.70
2022-08-31T01:35:16.625Z,10.80
2022-08-31T01:37:43.699Z,10.90
2022-08-31T01:40:11.817Z,10.80
2022-08-31T01:42:38.711Z,11.00
2022-08-31T01:45:06.612Z,11.10
2022-08-31T01:47:33.842Z,11.40
2022-08-31T01:50:00.667Z,11.50
2022-08-31T01:52:28.118Z,11.50
2022-08-31T01:54:55.811Z,11.50
2022-08-31T01:57:33.286Z,11.60
2022-08-31T02:00:04.132Z,11.60
2022-08-31T02:02:31.047Z,11.70
2022-08-31T02:04:57.973Z,11.70
2022-08-31T02:07:25.139Z,11.80
2022-08-31T02:09:53.442Z,11.90
2022-08-31T02:12:20.259Z,11.90
2022-08-31T02:14:47.086Z,11.80
2022-08-31T02:17:13.859Z,11.80
2022-08-31T02:19:40.952Z,11.80
2022-08-31T02:22:07.945Z,11.80
2022-08-31T02:24:34.751Z,12.10
2022-08-31T02:27:01.551Z,11.60
2022-08-31T02:29:28.563Z,11.60
2022-08-31T02:31:55.369Z,11.50
2022-08-31T02:34:22.137Z,11.40
2022-08-31T02:36:48.893Z,11.20
2022-08-31T02:39:15.658Z,11.20
2022-08-31T02:41:42.525Z,11.10
2022-08-31T02:44:09.538Z,11.00
2022-08-31T02:46:36.410Z,11.00
2022-08-31T02:49:03.941Z,10.90
2022-08-31T02:51:30.829Z,11.00
2022-08-31T02:53:57.934Z,10.90
2022-08-31T02:56:24.847Z,10.90
2022-08-31T02:58:51.865Z,10.90
2022-08-31T03:01:18.680Z,10.90
2022-08-31T03:03:47.130Z,11.00
2022-08-31T03:06:16.703Z,11.00
2022-08-31T03:08:43.521Z,11.00
2022-08-31T03:11:10.920Z,11.20
2022-08-31T03:13:39.153Z,11.30
2022-08-31T03:16:06.519Z,11.30
2022-08-31T03:18:33.365Z,11.40
2022-08-31T03:21:00.180Z,11.40
2022-08-31T03:23:26.988Z,11.40
2022-08-31T03:25:54.012Z,11.40
2022-08-31T03:28:21.006Z,11.30
2022-08-31T03:30:48.503Z,11.20
2022-08-31T03:33:15.505Z,11.20
2022-08-31T03:35:42.278Z,11.00
2022-08-31T03:38:09.221Z,11.00
2022-08-31T03:40:36.008Z,11.00
2022-08-31T03:43:02.958Z,10.90
2022-08-31T03:45:29.777Z,10.90
2022-08-31T03:47:56.525Z,10.90
2022-08-31T03:50:23.319Z,10.90
2022-08-31T03:52:50.088Z,10.90
2022-08-31T03:55:17.047Z,10.80
2022-08-31T03:57:43.845Z,10.80
2022-08-31T04:00:11.271Z,10.80
2022-08-31T04:02:39.257Z,10.80
2022-08-31T04:05:07.605Z,10.80
2022-08-31T04:07:38.416Z,10.80
2022-08-31T04:10:13.856Z,10.80
2022-08-31T04:12:41.003Z,10.80
2022-08-31T04:15:09.023Z,10.80
2022-08-31T04:17:35.871Z,10.90
2022-08-31T04:20:03.857Z,11.00
2022-08-31T04:22:30.692Z,10.90
2022-08-31T04:24:57.537Z,10.90
2022-08-31T04:27:24.360Z,10.90
2022-08-31T04:29:51.192Z,10.90
2022-08-31T04:32:17.978Z,11.00
2022-08-31T04:34:44.727Z,11.00
2022-08-31T04:37:11.519Z,11.00
2022-08-31T04:39:49.434Z,11.10
2022-08-31T04:42:18.138Z,11.10
2022-08-31T04:44:44.994Z,11.10
2022-08-31T04:47:11.793Z,11.10
2022-08-31T04:49:39.021Z,11.30
2022-08-31T04:52:06.104Z,11.20
2022-08-31T04:54:33.186Z,11.20
2022-08-31T04:56:59.956Z,11.30
2022-08-31T04:59:26.729Z,11.40
2022-08-31T05:01:54.065Z,11.30
2022-08-31T05:04:21.369Z,11.60
2022-08-31T05:06:48.139Z,11.80
2022-08-31T05:09:20.261Z,11.90
2022-08-31T05:11:47.119Z,12.00
2022-08-31T05:14:13.934Z,12.20
2022-08-31T05:16:41.712Z,12.20
2022-08-31T05:19:08.953Z,12.30
2022-08-31T05:21:38.430Z,12.40
2022-08-31T05:24:14.223Z,12.40
2022-08-31T05:26:45.059Z,12.40
2022-08-31T05:29:12.980Z,12.50
2022-08-31T05:31:40.270Z,12.60
2022-08-31T05:34:07.813Z,12.70
2022-08-31T05:36:35.406Z,12.80
2022-08-31T05:39:02.238Z,12.70
2022-08-31T05:41:30.038Z,12.90
2022-08-31T05:43:56.829Z,12.90
2022-08-31T05:46:23.844Z,13.00
2022-08-31T05:48:50.648Z,13.10
2022-08-31T05:51:18.618Z,13.20
2022-08-31T05:53:45.709Z,13.30
2022-08-31T05:56:15.974Z,13.40
2022-08-31T05:58:47.637Z,13.50
2022-08-31T06:01:17.599Z,13.50
2022-08-31T06:03:45.170Z,13.60
2022-08-31T06:06:12.984Z,13.70
2022-08-31T06:08:41.002Z,13.90
2022-08-31T06:11:09.394Z,14.00
2022-08-31T06:13:36.161Z,14.10
2022-08-31T06:16:03.726Z,14.20
2022-08-31T06:18:30.677Z,14.20
2022-08-31T06:21:06.135Z,14.30
2022-08-31T06:23:32.936Z,14.50
2022-08-31T06:26:08.033Z,14.50
2022-08-31T06:28:34.936Z,14.70
2022-08-31T06:31:02.324Z,14.80
2022-08-31T06:33:29.604Z,14.80
2022-08-31T06:35:56.752Z,15.00
2022-08-31T06:38:25.206Z,15.00
2022-08-31T06:40:51.969Z,15.10
2022-08-31T06:43:19.000Z,15.20
2022-08-31T06:45:45.914Z,15.40
2022-08-31T06:48:12.694Z,15.40
2022-08-31T06:50:39.497Z,15.60
2022-08-31T06:53:06.315Z,15.70
2022-08-31T06:55:35.061Z,15.70
2022-08-31T06:58:03.141Z,15.90
2022-08-31T07:00:29.919Z,15.90
2022-08-31T07:02:57.724Z,16.10
2022-08-31T07:05:25.015Z,16.10
2022-08-31T07:07:51.883Z,16.20
2022-08-31T07:10:18.798Z,16.30
2022-08-31T07:12:45.602Z,16.40
2022-08-31T07:15:12.430Z,16.50
2022-08-31T07:17:39.256Z,16.50
2022-08-31T07:20:06.635Z,16.50
2022-08-31T07:22:33.485Z,16.70
2022-08-31T07:25:00.307Z,16.80
2022-08-31T07:27:27.245Z,16.90
2022-08-31T07:29:54.100Z,17.00
2022-08-31T07:32:20.958Z,17.00
2022-08-31T07:34:53.342Z,17.10
2022-08-31T07:37:23.263Z,17.10
2022-08-31T07:39:50.868Z,17.20
2022-08-31T07:42:28.111Z,17.20
2022-08-31T07:44:57.003Z,17.30
2022-08-31T07:47:27.189Z,17.40
2022-08-31T07:49:55.969Z,17.50
2022-08-31T07:52:29.357Z,17.60
2022-08-31T07:55:02.290Z,17.70
2022-08-31T07:57:29.081Z,17.80
2022-08-31T07:59:59.010Z,17.90
2022-08-31T08:02:25.968Z,17.90
2022-08-31T08:04:53.469Z,18.10
2022-08-31T08:07:21.537Z,18.20
2022-08-31T08:09:48.624Z,18.40
2022-08-31T08:12:15.471Z,18.50
2022-08-31T08:14:42.277Z,18.60
2022-08-31T08:17:09.128Z,18.80
2022-08-31T08:19:35.998Z,19.10
2022-08-31T08:22:03.501Z,19.20
2022-08-31T08:24:31.574Z,19.60
2022-08-31T08:26:59.113Z,21.00
2022-08-31T08:29:27.490Z,24.30
2022-08-31T08:31:54.587Z,25.70
2022-08-31T08:34:29.587Z,26.40
2022-08-31T08:36:59.866Z,26.80
2022-08-31T08:39:26.871Z,27.00
2022-08-31T08:41:56.831Z,27.40
2022-08-31T08:44:27.657Z,27.80
2022-08-31T08:47:00.257Z,28.30
2022-08-31T08:49:56.142Z,28.70
2022-08-31T08:52:35.755Z,28.20
2022-08-31T08:55:06.381Z,28.80
2022-08-31T08:57:40.928Z,29.40
2022-08-31T09:00:15.668Z,29.60
2022-08-31T09:03:10.098Z,29.20
2022-08-31T09:05:52.943Z,28.30
2022-08-31T09:08:34.756Z,28.90
2022-08-31T09:11:14.198Z,29.20
2022-08-31T09:14:01.561Z,27.70
2022-08-31T09:16:42.142Z,25.80
2022-08-31T09:19:13.426Z,26.50
2022-08-31T09:21:48.248Z,27.00
2022-08-31T09:24:21.329Z,25.70
2022-08-31T09:26:52.866Z,25.00
2022-08-31T09:29:29.111Z,24.40
2022-08-31T09:32:07.955Z,23.60
2022-08-31T09:34:37.743Z,25.30
2022-08-31T09:37:21.631Z,26.80
2022-08-31T09:39:50.700Z,26.70
2022-08-31T09:42:19.587Z,25.40
2022-08-31T09:44:51.175Z,26.80
2022-08-31T09:47:41.869Z,25.80
2022-08-31T09:50:08.802Z,26.70
2022-08-31T09:52:36.985Z,26.80
2022-08-31T09:55:04.018Z,25.30
2022-08-31T09:57:59.428Z,24.60
2022-08-31T10:00:37.312Z,25.90
2022-08-31T10:03:08.854Z,24.80
2022-08-31T10:05:38.969Z,24.20
2022-08-31T10:08:17.534Z,26.30
2022-08-31T10:10:49.548Z,27.30
2022-08-31T10:13:25.164Z,28.10
2022-08-31T10:15:59.730Z,28.50
2022-08-31T10:18:35.693Z,29.00
2022-08-31T10:21:08.991Z,29.50
2022-08-31T10:23:41.230Z,29.60
2022-08-31T10:26:17.846Z,28.10
2022-08-31T10:28:53.803Z,28.40
2022-08-31T10:31:23.324Z,28.80
2022-08-31T10:33:55.521Z,29.30
2022-08-31T10:36:22.692Z,29.80
2022-08-31T10:38:52.514Z,28.00
2022-08-31T10:41:30.841Z,26.80
2022-08-31T10:44:26.661Z,25.90
2022-08-31T10:46:57.211Z,25.60
2022-08-31T10:49:25.075Z,26.60
2022-08-31T10:52:20.995Z,27.50
2022-08-31T10:55:21.581Z,27.50
2022-08-31T10:57:51.664Z,27.30
2022-08-31T11:00:27.762Z,27.70
2022-08-31T11:03:26.727Z,27.60
2022-08-31T11:06:03.700Z,28.60
2022-08-31T11:08:48.289Z,28.80
2022-08-31T11:11:30.035Z,29.20
2022-08-31T11:14:17.026Z,28.80
2022-08-31T11:16:56.195Z,28.70
2022-08-31T11:19:41.890Z,28.50
2022-08-31T11:22:14.885Z,28.20
2022-08-31T11:25:09.626Z,28.70
2022-08-31T11:27:46.986Z,28.10
2022-08-31T11:30:29.584Z,28.30
2022-08-31T11:32:59.435Z,28.70
2022-08-31T11:35:52.924Z,27.80
2022-08-31T11:38:41.485Z,27.50
2022-08-31T11:41:09.231Z,26.60
2022-08-31T11:43:35.953Z,26.50
2022-08-31T11:46:21.118Z,26.20
2022-08-31T11:48:53.078Z,25.80
2022-08-31T11:51:41.889Z,25.40
2022-08-31T11:54:23.714Z,26.40
2022-08-31T11:56:50.555Z,27.00
2022-08-31T11:59:29.524Z,27.30
2022-08-31T12:02:19.866Z,28.20
2022-08-31T12:04:46.667Z,27.70
2022-08-31T12:07:21.630Z,28.30
2022-08-31T12:10:02.304Z,28.90
2022-08-31T12:12:42.047Z,29.60
2022-08-31T12:15:13.476Z,29.60
2022-08-31T12:18:03.044Z,29.60
2022-08-31T12:20:49.993Z,28.90
2022-08-31T12:23:33.980Z,28.20
2022-08-31T12:26:52.371Z,28.40
2022-08-31T12:29:35.069Z,27.80
2022-08-31T12:32:10.947Z,27.80
2022-08-31T12:34:59.905Z,27.40
2022-08-31T12:37:33.443Z,27.60
2022-08-31T12:40:21.795Z,27.80
2022-08-31T12:43:01.210Z,28.20
2022-08-31T12:46:06.496Z,28.10
2022-08-31T12:48:46.819Z,28.10
2022-08-31T12:51:53.903Z,28.40
2022-08-31T12:54:54.601Z,28.20
2022-08-31T12:57:49.915Z,28.60
2022-08-31T13:00:43.233Z,28.50
2022-08-31T13:03:24.349Z,28.30
2022-08-31T13:06:14.235Z,28.30
2022-08-31T13:08:45.942Z,28.60
2022-08-31T13:11:34.950Z,28.30
2022-08-31T13:14:23.243Z,28.40
2022-08-31T13:16:57.330Z,28.20
2022-08-31T13:19:28.367Z,27.60
2022-08-31T13:22:03.633Z,27.60
2022-08-31T13:24:33.288Z,27.20
2022-08-31T13:27:21.457Z,27.30
2022-08-31T13:29:49.995Z,26.70
2022-08-31T13:32:19.739Z,26.30
2022-08-31T13:34:46.585Z,26.30
2022-08-31T13:37:23.430Z,26.40
2022-08-31T13:39:50.282Z,26.30
2022-08-31T13:42:36.853Z,26.30
2022-08-31T13:45:06.883Z,26.50
2022-08-31T13:47:45.833Z,26.30
2022-08-31T13:50:25.546Z,26.40
2022-08-31T13:53:22.671Z,26.80
2022-08-31T13:55:43.409Z,26.80
2022-08-31T13:58:31.143Z,27.00
2022-08-31T14:01:19.802Z,27.30
2022-08-31T14:03:56.968Z,27.40
2022-08-31T14:06:34.565Z,27.30
2022-08-31T14:09:16.872Z,27.50
2022-08-31T14:11:53.790Z,27.50
2022-08-31T14:14:24.266Z,27.60
2022-08-31T14:16:57.149Z,27.50
2022-08-31T14:19:32.499Z,26.70
2022-08-31T14:22:33.126Z,26.50
2022-08-31T14:24:59.934Z,26.40
2022-08-31T14:27:28.440Z,27.00
2022-08-31T14:29:55.451Z,27.50
2022-08-31T14:32:22.306Z,27.60
2022-08-31T14:34:49.807Z,27.70
2022-08-31T14:37:18.880Z,27.90
2022-08-31T14:39:48.211Z,28.00
2022-08-31T14:42:19.620Z,28.70
2022-08-31T14:45:01.175Z,29.10
2022-08-31T14:47:30.645Z,29.10
2022-08-31T14:49:59.082Z,28.80
2022-08-31T14:52:25.923Z,28.70
2022-08-31T14:54:52.691Z,28.70
2022-08-31T14:57:22.509Z,28.80
2022-08-31T14:59:49.329Z,28.00
2022-08-31T15:02:16.172Z,28.20
2022-08-31T15:04:45.728Z,28.70
2022-08-31T15:07:14.532Z,28.70
2022-08-31T15:09:41.601Z,29.30
2022-08-31T15:12:09.936Z,29.30
2022-08-31T15:14:39.427Z,28.60
2022-08-31T15:17:13.041Z,27.70
2022-08-31T15:19:47.745Z,27.10
2022-08-31T15:22:14.517Z,27.70
2022-08-31T15:24:41.292Z,28.40
2022-08-31T15:27:08.121Z,28.60
2022-08-31T15:29:34.947Z,28.90
2022-08-31T15:32:01.916Z,29.10
2022-08-31T15:34:30.609Z,29.50
2022-08-31T15:37:00.656Z,29.80
2022-08-31T15:39:31.722Z,29.60
2022-08-31T15:42:00.322Z,29.80
2022-08-31T15:44:27.146Z,29.90
2022-08-31T15:46:53.917Z,29.00
2022-08-31T15:49:22.881Z,29.10
2022-08-31T15:51:50.294Z,28.60
2022-08-31T15:54:22.633Z,28.70
2022-08-31T15:56:51.453Z,28.40
2022-08-31T15:59:18.551Z,28.00
2022-08-31T16:01:45.603Z,27.90
2022-08-31T16:04:12.435Z,28.20
2022-08-31T16:06:39.228Z,27.80
2022-08-31T16:09:06.003Z,27.40
2022-08-31T16:11:33.383Z,27.20
2022-08-31T16:14:04.430Z,26.60
2022-08-31T16:16:36.205Z,26.10
2022-08-31T16:19:04.289Z,25.70
2022-08-31T16:21:37.390Z,25.20
2022-08-31T16:24:07.907Z,24.40
2022-08-31T16:26:37.588Z,24.20
2022-08-31T16:29:07.888Z,24.10
2022-08-31T16:31:35.163Z,23.80
2022-08-31T16:34:02.112Z,23.80
2022-08-31T16:36:28.897Z,23.50
2022-08-31T16:38:56.239Z,23.40
2022-08-31T16:41:24.687Z,23.10
2022-08-31T16:44:16.058Z,22.80
2022-08-31T16:46:40.994Z,22.70
2022-08-31T16:49:08.255Z,22.50
2022-08-31T16:51:35.312Z,22.40
2022-08-31T16:54:04.754Z,22.30
2022-08-31T16:56:34.476Z,22.00
2022-08-31T16:59:01.785Z,21.80
2022-08-31T17:01:32.361Z,21.60
2022-08-31T17:04:02.775Z,21.40
2022-08-31T17:06:33.177Z,21.30
2022-08-31T17:09:03.063Z,21.30
2022-08-31T17:11:37.034Z,21.20
2022-08-31T17:14:07.308Z,21.10
2022-08-31T17:16:39.303Z,21.00
2022-08-31T17:19:09.477Z,20.90
2022-08-31T17:21:39.071Z,20.70
2022-08-31T17:24:10.202Z,20.70
2022-08-31T17:26:38.929Z,20.50
2022-08-31T17:29:06.952Z,20.30
2022-08-31T17:31:37.385Z,20.20
2022-08-31T17:34:04.292Z,20.10
2022-08-31T17:36:36.549Z,20.00
2022-08-31T17:39:04.366Z,19.90
2022-08-31T17:41:31.165Z,19.80
2022-08-31T17:43:58.275Z,19.80
2022-08-31T17:46:25.157Z,19.70
2022-08-31T17:48:52.694Z,19.50
2022-08-31T17:51:26.639Z,19.40
2022-08-31T17:53:59.136Z,19.40
2022-08-31T17:56:31.745Z,19.20
2022-08-31T17:58:58.518Z,19.20
2022-08-31T18:01:25.351Z,19.10
2022-08-31T18:03:52.179Z,19.10
2022-08-31T18:06:18.959Z,19.00
2022-08-31T18:11:56.180Z,18.90
2022-08-31T18:14:25.811Z,18.80
2022-08-31T18:16:54.980Z,18.70
2022-08-31T18:19:27.814Z,18.60
2022-08-31T18:21:56.577Z,18.50
2022-08-31T18:24:23.483Z,18.50
2022-08-31T18:26:51.509Z,18.40
2022-08-31T18:29:23.838Z,18.40
2022-08-31T18:31:52.050Z,18.30
2022-08-31T18:34:22.136Z,18.20
2022-08-31T18:36:50.599Z,18.10
2022-08-31T18:39:29.655Z,18.00
2022-08-31T18:42:06.790Z,18.00
2022-08-31T18:44:34.862Z,18.00
2022-08-31T18:47:04.697Z,17.90
2022-08-31T18:49:32.265Z,17.90
2022-08-31T18:51:59.055Z,17.80
2022-08-31T18:54:25.858Z,17.80
2022-08-31T18:56:52.676Z,17.70
2022-08-31T18:59:20.403Z,17.60
2022-08-31T19:01:47.500Z,17.70
2022-08-31T19:04:17.567Z,17.60
2022-08-31T19:06:46.755Z,17.50
2022-08-31T19:09:13.673Z,17.50
2022-08-31T19:11:42.040Z,17.40
2022-08-31T19:14:09.901Z,17.30
2022-08-31T19:16:36.814Z,17.20
2022-08-31T19:19:03.849Z,17.10
2022-08-31T19:21:33.880Z,17.10
2022-08-31T19:24:05.151Z,17.10
2022-08-31T19:26:35.562Z,17.10
2022-08-31T19:29:02.466Z,17.10
2022-08-31T19:31:29.350Z,17.00
2022-08-31T19:33:57.385Z,16.90
2022-08-31T19:36:25.138Z,16.90
2022-08-31T19:38:53.950Z,16.80
2022-08-31T19:41:23.974Z,16.70
2022-08-31T19:44:01.921Z,16.60
2022-08-31T19:46:32.425Z,16.50
2022-08-31T19:48:59.326Z,16.40
2022-08-31T19:51:28.640Z,16.40
2022-08-31T19:53:56.244Z,16.40
2022-08-31T19:56:25.524Z,16.40
2022-08-31T19:58:53.925Z,16.40
2022-08-31T20:01:22.298Z,16.40
2022-08-31T20:03:49.110Z,16.40
2022-08-31T20:06:18.401Z,16.40
2022-08-31T20:08:46.122Z,16.30
2022-08-31T20:11:20.747Z,16.30
2022-08-31T20:13:52.252Z,16.20
2022-08-31T20:16:21.634Z,16.20
2022-08-31T20:18:50.574Z,16.10
2022-08-31T20:21:21.226Z,16.00
2022-08-31T20:23:49.862Z,15.90
2022-08-31T20:26:19.822Z,16.00
2022-08-31T20:28:47.887Z,15.80
2022-08-31T20:31:14.726Z,15.90
2022-08-31T20:33:41.551Z,15.90
2022-08-31T20:36:20.608Z,15.80
2022-08-31T20:39:00.707Z,15.80
2022-08-31T20:41:30.954Z,15.70
2022-08-31T20:44:09.310Z,15.70
2022-08-31T20:46:47.964Z,15.70
2022-08-31T20:49:14.775Z,15.70
2022-08-31T20:51:41.540Z,15.60
2022-08-31T20:54:08.448Z,15.70
2022-08-31T20:56:35.283Z,15.60
2022-08-31T20:59:02.051Z,15.60
2022-08-31T21:01:29.656Z,15.60
2022-08-31T21:03:56.717Z,15.60
2022-08-31T21:06:23.648Z,15.50
2022-08-31T21:08:54.613Z,15.60
2022-08-31T21:11:23.711Z,15.60
2022-08-31T21:13:50.962Z,15.60
2022-08-31T21:16:19.476Z,15.60
2022-08-31T21:18:46.853Z,15.60
2022-08-31T21:21:15.048Z,15.50
2022-08-31T21:23:41.936Z,15.50
2022-08-31T21:26:08.830Z,15.50
2022-08-31T21:28:36.663Z,15.50
2022-08-31T21:31:15.372Z,15.50
2022-08-31T21:33:42.713Z,15.50
2022-08-31T21:36:13.580Z,15.50
2022-08-31T21:38:40.402Z,15.40
2022-08-31T21:41:09.651Z,15.40
2022-08-31T21:43:37.197Z,15.40
2022-08-31T21:46:16.033Z,15.40
2022-08-31T21:48:44.519Z,15.40
2022-08-31T21:51:20.519Z,15.40
2022-08-31T21:53:49.902Z,15.40
2022-08-31T21:56:18.347Z,15.30
2022-08-31T21:58:45.133Z,15.30
2022-08-31T22:01:12.599Z,15.30
2022-08-31T22:03:42.644Z,15.20
2022-08-31T22:06:15.411Z,15.30
2022-08-31T22:08:44.639Z,15.30
2022-08-31T22:11:13.468Z,15.30
2022-08-31T22:13:41.346Z,15.30
2022-08-31T22:16:08.196Z,15.30
2022-08-31T22:19:00.315Z,15.30
2022-08-31T22:21:26.554Z,15.30
2022-08-31T22:23:56.130Z,15.30
2022-08-31T22:26:26.428Z,15.20
2022-08-31T22:28:53.920Z,15.20
2022-08-31T22:31:21.318Z,15.20
2022-08-31T22:33:49.740Z,15.20
2022-08-31T22:36:19.755Z,15.20
2022-08-31T22:39:00.872Z,15.10
2022-08-31T22:41:27.641Z,15.10
2022-08-31T22:43:54.411Z,15.10
2022-08-31T22:46:21.309Z,15.00
2022-08-31T22:48:48.567Z,15.00
2022-08-31T22:51:16.411Z,15.00
2022-08-31T22:53:46.148Z,15.10
2022-08-31T22:56:20.826Z,15.00
2022-08-31T22:58:48.140Z,15.00
2022-08-31T23:01:19.039Z,15.00
2022-08-31T23:03:47.557Z,15.00
2022-08-31T23:06:15.302Z,15.00
2022-08-31T23:08:43.325Z,14.90
2022-08-31T23:11:10.878Z,14.90
2022-08-31T23:13:37.703Z,14.90
2022-08-31T23:16:04.577Z,14.80
2022-08-31T23:18:31.343Z,14.80
2022-08-31T23:21:00.580Z,14.70
2022-08-31T23:23:27.351Z,14.80
2022-08-31T23:25:54.802Z,14.70
2022-08-31T23:28:21.579Z,14.60
2022-08-31T23:30:48.443Z,14.60
2022-08-31T23:33:15.298Z,14.60
2022-08-31T23:35:42.066Z,14.50
2022-08-31T23:38:08.822Z,14.50
2022-08-31T23:40:35.666Z,14.50
2022-08-31T23:43:02.442Z,14.40
2022-08-31T23:45:29.278Z,14.30
2022-08-31T23:47:56.075Z,14.40
2022-08-31T23:50:22.857Z,14.40
2022-08-31T23:52:49.616Z,14.30
2022-08-31T23:55:16.381Z,14.30
2022-08-31T23:57:43.138Z,14.20
